Whitewater, Colorado
Current Conditions -  °F | °C
As of 7:53 PM on Friday 19 Dec 2014 (Local Time) from KGJT Reporting Station
Clear Clear  
Wind Chill: -2°   Ceiling: Unl
Heat Index: -2°   Visibility: 10mi
Dew Point: -3°   Wind: 3mph
Humidity: 92%   Direction: 350°N
Pressure: 30.21"   Gusts: NA
Location:  38.99°N, 108.45°W
Report Text: KGJT 200253Z 35003KT 10SM CLR M02/M03 A3021 RMK AO2 SLP250 T10171028 51001 $
Loading
Personal Weather Stations






























Interactive Weather Map New forecast layout! Learn more

10-Day Weather Forecast

Advertisements
Track Severe Weather on mobile